Pagrindinis puslapis
METAR-TAF:

METAR-TAF

Oro uostai :

Ndžamena, Čadas

platuma: 12-08N, ilguma: 015-02E, Aukštis: 295 m

Dabartinis oras

Ataskaita buvo paskelbta 1 valandą ir 2 minutes, ne 01:00 UTC
Vėjas 9 kt iš Šiaurės/Šiaurės Rytų
Temperatūra 20°C
Drėgmė 23%
Slėgis 1013 hPa
Matomumas: 6000 m

METAR: FTTJ 210100Z 02009KT 6000 NSC 20/M02 Q1013 NOSIG

Laikas: 03:02 (02:02 UTC)

Prognozė

Ataskaita buvo paskelbta 3 valandos ir 2 minutes, ne 23:00 UTC
Prognozė galioja nuo 21 metu 00 UTC su 22 metu 06 UTC
Vėjas 8 kt iš Šiaurės/Šiaurės Rytų
Matomumas: 7000 m
Laikinai
nuo 21 metu 05 UTC su 21 metu 10 UTC
Matomumas: 4000 m
migla
Laikinai
nuo 21 metu 15 UTC su 21 metu 21 UTC
Matomumas: 4000 m
dulkės
Tapsmas
nuo 22 metu 00 UTC su 22 metu 02 UTC
Matomumas: 2000 m

TAF: FTTJ 202300Z 2100/2206 02008KT 7000 NSC TEMPO 2105/2110 4000 HZ TEMPO 2115/2121 4000 DU BECMG 2200/2202 2000

Orai ataskaitas ir orų prognozės (METAR, TAF).

turimą stotys yra geltonos ir raudonos taškus žemėlapyje.

Perkelti pele per norėdami pamatyti stoties vardą.

Tada spustelėkite, norėdami matyti oro stebėjimo ir prognozės.

Norėdami pakeisti žemėlapį: spustelėkite ant žalios mygtukų su juodo kryžiaus žemyn,; žalią mygtuką su brūkšneliu, jei norite nutolinti; arba žalių rodyklių gretimoms žemėlapius.


METAR-TAF: